Contralmirante Cordero, Argentina
Current Conditions -  °F | °C
As of 6:00 PM on Monday 20 Oct 2014 (Local Time) from SAZN Reporting Station
Broken Clouds Broken Clouds  
Wind Chill: 82°   Ceiling: 20000
Heat Index: 82°   Visibility: 6mi
Dew Point: 43°   Wind: 8mph
Humidity: 25%   Direction: 250°WSW
Pressure: 29.83"   Gusts: NA
Location:  38.73°S, 68.17°W
Report Text: SAZN 202100Z 25007KT 9999 FEW050 SCT100BKN200 28/06 Q1010
Loading
Personal Weather Stations






























Interactive Weather Map
Tropical Storm Tracking
New forecast layout! Learn more

10-Day Weather Forecast

Advertisements
Track Severe Weather on mobile